createdAt,value
2019-05-12T07:01:18.462Z,99.90
2019-05-12T07:02:52.354Z,99.90
2019-05-12T07:04:25.863Z,99.90
2019-05-12T07:06:03.947Z,99.90
2019-05-12T07:07:41.859Z,99.90
2019-05-12T07:09:23.391Z,99.90
2019-05-12T07:11:01.723Z,99.90
2019-05-12T07:17:28.226Z,99.90
2019-05-12T07:19:07.606Z,99.90
2019-05-12T07:20:40.940Z,99.90
2019-05-12T07:22:21.902Z,99.90
2019-05-12T07:23:54.880Z,99.90
2019-05-12T07:25:31.517Z,99.90
2019-05-12T07:27:09.272Z,99.90
2019-05-12T07:28:45.212Z,99.90
2019-05-12T07:51:20.648Z,99.90
2019-05-12T07:52:55.998Z,99.90
2019-05-12T07:54:37.761Z,99.90
2019-05-12T07:56:08.166Z,99.90
2019-05-12T08:36:05.487Z,99.90
2019-05-12T08:37:37.998Z,99.90
2019-05-12T08:50:31.647Z,99.90
2019-05-12T08:52:03.854Z,99.90
2019-05-12T08:53:38.721Z,99.90
2019-05-12T09:00:45.452Z,99.90
2019-05-12T09:02:15.721Z,99.90
2019-05-12T09:03:50.712Z,99.90
2019-05-12T09:05:33.604Z,99.90
2019-05-12T09:07:04.377Z,99.90
2019-05-12T09:08:44.866Z,99.90
2019-05-12T09:10:17.368Z,99.90
2019-05-12T09:11:54.258Z,99.90
2019-05-12T09:13:29.560Z,99.90
2019-05-12T09:18:19.036Z,99.90
2019-05-12T09:20:02.569Z,99.90
2019-05-12T09:23:07.968Z,99.90
2019-05-12T09:24:44.106Z,99.90
2019-05-12T09:27:55.655Z,99.90
2019-05-12T09:29:30.800Z,99.90
2019-05-12T09:31:05.967Z,99.90
2019-05-12T09:39:23.499Z,99.90
2019-05-12T09:41:01.158Z,99.90
2019-05-12T09:42:36.181Z,99.90
2019-05-12T09:44:13.379Z,99.90
2019-05-12T09:45:52.409Z,99.90
2019-05-12T09:47:27.733Z,99.90
2019-05-12T09:49:04.119Z,99.90
2019-05-12T09:50:40.048Z,99.90
2019-05-12T09:58:39.321Z,99.90
2019-05-12T10:12:58.509Z,99.90
2019-05-12T10:14:33.662Z,99.90
2019-05-12T10:16:09.034Z,99.90
2019-05-12T10:35:26.831Z,99.90
2019-05-12T10:37:04.123Z,99.40
2019-05-12T10:38:39.236Z,99.60
2019-05-12T10:43:24.703Z,99.90
2019-05-12T11:13:30.580Z,99.90
2019-05-12T11:15:08.181Z,94.60
2019-05-12T11:21:33.713Z,94.20
2019-05-12T11:24:44.370Z,91.60
2019-05-12T11:26:20.177Z,91.90
2019-05-12T11:27:55.322Z,92.60
2019-05-12T11:29:45.299Z,94.20
2019-05-12T11:31:07.387Z,94.40
2019-05-12T11:32:44.162Z,94.00
2019-05-12T11:34:19.440Z,95.50
2019-05-12T11:35:54.869Z,92.50
2019-05-12T11:37:30.338Z,92.80
2019-05-12T11:39:07.092Z,92.30
2019-05-12T11:40:43.737Z,93.90
2019-05-12T11:42:19.347Z,94.10
2019-05-12T11:43:54.494Z,93.80
2019-05-12T11:45:29.969Z,92.60
2019-05-12T11:47:05.518Z,93.60
2019-05-12T11:48:46.356Z,93.50
2019-05-12T11:50:18.189Z,94.30
2019-05-12T11:51:54.461Z,93.90
2019-05-12T11:53:32.202Z,94.00
2019-05-12T11:55:07.663Z,93.00
2019-05-12T11:56:46.535Z,93.50
2019-05-12T11:58:20.229Z,93.60
2019-05-12T12:00:01.997Z,95.00
2019-05-12T12:52:48.691Z,96.00
2019-05-12T12:54:21.490Z,85.60
2019-05-12T12:57:33.568Z,78.30
2019-05-12T12:59:11.663Z,86.00
2019-05-12T13:00:48.111Z,82.70
2019-05-12T13:02:24.714Z,80.00
2019-05-12T13:04:04.770Z,83.00
2019-05-12T13:08:45.895Z,84.90
2019-05-12T13:10:21.782Z,82.60
2019-05-12T13:11:56.983Z,78.70
2019-05-12T13:13:32.553Z,82.90
2019-05-12T13:15:08.195Z,77.80
2019-05-12T13:16:43.886Z,80.00
2019-05-12T13:19:58.699Z,76.90
2019-05-12T13:21:33.550Z,83.50
2019-05-12T13:23:08.901Z,80.60
2019-05-12T13:24:44.073Z,85.50
2019-05-12T13:26:19.483Z,83.50
2019-05-12T13:27:54.630Z,83.40
2019-05-12T13:29:38.064Z,83.10
2019-05-12T13:31:12.779Z,84.60
2019-05-12T13:32:44.129Z,84.70
2019-05-12T13:34:19.479Z,83.60
2019-05-12T13:35:55.745Z,85.30
2019-05-12T13:37:33.707Z,81.10
2019-05-12T13:39:11.318Z,81.70
2019-05-12T13:40:46.157Z,84.20
2019-05-12T13:42:21.327Z,85.20
2019-05-12T13:43:59.985Z,89.10
2019-05-12T13:45:33.717Z,85.60
2019-05-12T13:47:08.882Z,81.60
2019-05-12T13:51:55.233Z,86.10
2019-05-12T13:53:30.416Z,84.20
2019-05-12T14:07:57.401Z,83.90
2019-05-12T14:09:34.322Z,76.00
2019-05-12T14:11:09.629Z,76.20
2019-05-12T14:12:44.793Z,74.80
2019-05-12T14:14:20.182Z,77.40
2019-05-12T14:15:55.359Z,74.90
2019-05-12T14:17:30.952Z,76.40
2019-05-12T14:19:07.463Z,76.50
2019-05-12T14:20:44.867Z,77.40
2019-05-12T14:22:21.515Z,72.90
2019-05-12T14:23:56.505Z,71.10
2019-05-12T14:25:33.002Z,71.80
2019-05-12T14:27:08.801Z,73.70
2019-05-12T14:28:45.690Z,75.60
2019-05-12T14:30:24.389Z,79.10
2019-05-12T14:32:02.433Z,77.90
2019-05-12T14:33:39.252Z,75.80
2019-05-12T14:35:14.395Z,73.30
2019-05-12T14:36:49.801Z,73.70
2019-05-12T14:38:29.633Z,76.70
2019-05-12T14:40:03.968Z,76.00
2019-05-12T14:41:44.566Z,79.30
2019-05-12T14:43:21.351Z,80.10
2019-05-12T14:44:55.743Z,80.50
2019-05-12T14:46:33.428Z,81.10
2019-05-12T14:48:09.426Z,82.90
2019-05-12T14:49:45.061Z,82.50
2019-05-12T14:51:20.689Z,82.00
2019-05-12T14:52:59.601Z,81.70
2019-05-12T14:54:34.283Z,84.20
2019-05-12T14:56:09.595Z,80.30
2019-05-12T14:57:45.006Z,79.60
2019-05-12T14:59:20.421Z,80.80
2019-05-12T15:00:57.931Z,83.20
2019-05-12T15:02:33.167Z,84.00
2019-05-12T15:04:08.577Z,81.20
